sensor_id;sensor_type;location;lat;lon;timestamp;P1;durP1;ratioP1;P2;durP2;ratioP2
18360;SDS011;9308;48.550;9.108;2023-03-12T00:00:14;4.77;;;3.73;;
18360;SDS011;9308;48.550;9.108;2023-03-12T00:02:40;6.07;;;4.00;;
18360;SDS011;9308;48.550;9.108;2023-03-12T00:05:06;3.73;;;3.43;;
18360;SDS011;9308;48.550;9.108;2023-03-12T00:07:31;3.83;;;3.53;;
18360;SDS011;9308;48.550;9.108;2023-03-12T00:09:57;4.37;;;3.97;;
18360;SDS011;9308;48.550;9.108;2023-03-12T00:12:22;4.13;;;3.67;;
18360;SDS011;9308;48.550;9.108;2023-03-12T00:14:48;4.37;;;3.27;;
18360;SDS011;9308;48.550;9.108;2023-03-12T00:17:13;3.80;;;3.40;;
18360;SDS011;9308;48.550;9.108;2023-03-12T00:19:38;4.70;;;4.30;;
18360;SDS011;9308;48.550;9.108;2023-03-12T00:22:04;3.80;;;3.50;;
18360;SDS011;9308;48.550;9.108;2023-03-12T00:24:29;3.90;;;3.60;;
18360;SDS011;9308;48.550;9.108;2023-03-12T00:26:55;5.10;;;4.43;;
18360;SDS011;9308;48.550;9.108;2023-03-12T00:29:20;5.37;;;4.43;;
18360;SDS011;9308;48.550;9.108;2023-03-12T00:31:46;4.87;;;3.90;;
18360;SDS011;9308;48.550;9.108;2023-03-12T00:34:12;5.43;;;4.50;;
18360;SDS011;9308;48.550;9.108;2023-03-12T00:36:37;4.50;;;3.90;;
18360;SDS011;9308;48.550;9.108;2023-03-12T00:39:04;4.13;;;3.73;;
18360;SDS011;9308;48.550;9.108;2023-03-12T00:41:30;4.17;;;3.67;;
18360;SDS011;9308;48.550;9.108;2023-03-12T00:43:56;4.60;;;4.00;;
18360;SDS011;9308;48.550;9.108;2023-03-12T00:46:21;5.73;;;4.37;;
18360;SDS011;9308;48.550;9.108;2023-03-12T00:48:47;4.90;;;4.50;;
18360;SDS011;9308;48.550;9.108;2023-03-12T00:51:13;9.73;;;8.77;;
18360;SDS011;9308;48.550;9.108;2023-03-12T00:53:38;8.80;;;7.90;;
18360;SDS011;9308;48.550;9.108;2023-03-12T00:56:04;7.37;;;6.37;;
18360;SDS011;9308;48.550;9.108;2023-03-12T00:58:30;12.37;;;10.90;;
18360;SDS011;9308;48.550;9.108;2023-03-12T01:00:56;10.90;;;8.40;;
18360;SDS011;9308;48.550;9.108;2023-03-12T01:03:21;8.80;;;7.83;;
18360;SDS011;9308;48.550;9.108;2023-03-12T01:05:47;10.83;;;7.13;;
18360;SDS011;9308;48.550;9.108;2023-03-12T01:08:18;6.83;;;6.13;;
18360;SDS011;9308;48.550;9.108;2023-03-12T01:10:44;6.73;;;6.13;;
18360;SDS011;9308;48.550;9.108;2023-03-12T01:13:09;5.87;;;5.30;;
18360;SDS011;9308;48.550;9.108;2023-03-12T01:15:35;6.03;;;5.50;;
18360;SDS011;9308;48.550;9.108;2023-03-12T01:18:01;10.80;;;9.80;;
18360;SDS011;9308;48.550;9.108;2023-03-12T01:20:26;11.57;;;10.43;;
18360;SDS011;9308;48.550;9.108;2023-03-12T01:22:52;8.50;;;7.60;;
18360;SDS011;9308;48.550;9.108;2023-03-12T01:25:17;8.50;;;7.67;;
18360;SDS011;9308;48.550;9.108;2023-03-12T01:27:43;8.30;;;7.63;;
18360;SDS011;9308;48.550;9.108;2023-03-12T01:30:09;8.70;;;7.90;;
18360;SDS011;9308;48.550;9.108;2023-03-12T01:32:35;8.77;;;8.03;;
18360;SDS011;9308;48.550;9.108;2023-03-12T01:35:01;8.07;;;7.37;;
18360;SDS011;9308;48.550;9.108;2023-03-12T01:37:27;8.53;;;7.80;;
18360;SDS011;9308;48.550;9.108;2023-03-12T01:39:52;8.40;;;7.70;;
18360;SDS011;9308;48.550;9.108;2023-03-12T01:42:18;8.53;;;7.67;;
18360;SDS011;9308;48.550;9.108;2023-03-12T01:44:57;8.57;;;7.43;;
18360;SDS011;9308;48.550;9.108;2023-03-12T01:47:24;9.70;;;7.53;;
18360;SDS011;9308;48.550;9.108;2023-03-12T01:49:51;8.60;;;7.80;;
18360;SDS011;9308;48.550;9.108;2023-03-12T01:52:23;8.67;;;7.83;;
18360;SDS011;9308;48.550;9.108;2023-03-12T01:54:57;10.10;;;7.80;;
18360;SDS011;9308;48.550;9.108;2023-03-12T01:58:07;9.17;;;8.20;;
18360;SDS011;9308;48.550;9.108;2023-03-12T02:00:26;8.80;;;7.57;;
18360;SDS011;9308;48.550;9.108;2023-03-12T02:02:53;8.53;;;7.10;;
18360;SDS011;9308;48.550;9.108;2023-03-12T02:08:11;7.60;;;6.90;;
18360;SDS011;9308;48.550;9.108;2023-03-12T02:10:38;7.93;;;7.17;;
18360;SDS011;9308;48.550;9.108;2023-03-12T02:13:03;7.97;;;7.27;;
18360;SDS011;9308;48.550;9.108;2023-03-12T02:15:29;7.87;;;6.37;;
18360;SDS011;9308;48.550;9.108;2023-03-12T02:17:55;7.37;;;6.23;;
18360;SDS011;9308;48.550;9.108;2023-03-12T02:20:26;6.77;;;5.57;;
18360;SDS011;9308;48.550;9.108;2023-03-12T02:23:01;7.30;;;6.40;;
18360;SDS011;9308;48.550;9.108;2023-03-12T02:25:37;6.87;;;6.27;;
18360;SDS011;9308;48.550;9.108;2023-03-12T02:28:08;7.13;;;6.13;;
18360;SDS011;9308;48.550;9.108;2023-03-12T02:30:36;6.77;;;5.90;;
18360;SDS011;9308;48.550;9.108;2023-03-12T02:33:05;5.90;;;5.50;;
18360;SDS011;9308;48.550;9.108;2023-03-12T02:35:32;7.37;;;6.60;;
18360;SDS011;9308;48.550;9.108;2023-03-12T02:37:58;9.10;;;6.93;;
18360;SDS011;9308;48.550;9.108;2023-03-12T02:40:34;8.20;;;6.67;;
18360;SDS011;9308;48.550;9.108;2023-03-12T02:43:06;7.60;;;6.90;;
18360;SDS011;9308;48.550;9.108;2023-03-12T02:45:32;8.20;;;7.47;;
18360;SDS011;9308;48.550;9.108;2023-03-12T02:47:59;9.27;;;8.07;;
18360;SDS011;9308;48.550;9.108;2023-03-12T02:50:25;9.27;;;7.83;;
18360;SDS011;9308;48.550;9.108;2023-03-12T02:52:51;9.03;;;8.13;;
18360;SDS011;9308;48.550;9.108;2023-03-12T02:55:16;8.47;;;7.77;;
18360;SDS011;9308;48.550;9.108;2023-03-12T02:57:41;9.97;;;7.90;;
18360;SDS011;9308;48.550;9.108;2023-03-12T03:00:09;11.40;;;8.57;;
18360;SDS011;9308;48.550;9.108;2023-03-12T03:02:40;8.97;;;8.17;;
18360;SDS011;9308;48.550;9.108;2023-03-12T03:05:06;8.03;;;7.43;;
18360;SDS011;9308;48.550;9.108;2023-03-12T03:07:33;9.27;;;8.37;;
18360;SDS011;9308;48.550;9.108;2023-03-12T03:09:59;8.67;;;7.90;;
18360;SDS011;9308;48.550;9.108;2023-03-12T03:12:29;8.83;;;7.93;;
18360;SDS011;9308;48.550;9.108;2023-03-12T03:14:55;8.57;;;7.87;;
18360;SDS011;9308;48.550;9.108;2023-03-12T03:17:20;9.30;;;8.00;;
18360;SDS011;9308;48.550;9.108;2023-03-12T03:19:48;9.00;;;8.20;;
18360;SDS011;9308;48.550;9.108;2023-03-12T03:22:15;9.47;;;8.60;;
18360;SDS011;9308;48.550;9.108;2023-03-12T03:24:41;10.57;;;9.43;;
18360;SDS011;9308;48.550;9.108;2023-03-12T03:27:06;12.70;;;11.60;;
18360;SDS011;9308;48.550;9.108;2023-03-12T03:29:32;11.83;;;10.40;;
18360;SDS011;9308;48.550;9.108;2023-03-12T03:31:57;10.10;;;8.37;;
18360;SDS011;9308;48.550;9.108;2023-03-12T03:34:23;7.90;;;7.10;;
18360;SDS011;9308;48.550;9.108;2023-03-12T03:36:49;9.27;;;7.00;;
18360;SDS011;9308;48.550;9.108;2023-03-12T03:39:15;8.77;;;7.93;;
18360;SDS011;9308;48.550;9.108;2023-03-12T03:41:40;8.47;;;7.60;;
18360;SDS011;9308;48.550;9.108;2023-03-12T03:44:05;8.20;;;7.47;;
18360;SDS011;9308;48.550;9.108;2023-03-12T03:46:32;8.93;;;7.53;;
18360;SDS011;9308;48.550;9.108;2023-03-12T03:48:59;7.70;;;6.90;;
18360;SDS011;9308;48.550;9.108;2023-03-12T03:51:26;9.90;;;7.47;;
18360;SDS011;9308;48.550;9.108;2023-03-12T03:53:52;8.53;;;7.73;;
18360;SDS011;9308;48.550;9.108;2023-03-12T03:56:17;8.60;;;7.77;;
18360;SDS011;9308;48.550;9.108;2023-03-12T03:58:43;12.57;;;8.30;;
18360;SDS011;9308;48.550;9.108;2023-03-12T04:01:08;11.57;;;9.60;;
18360;SDS011;9308;48.550;9.108;2023-03-12T04:03:34;9.47;;;8.57;;
18360;SDS011;9308;48.550;9.108;2023-03-12T04:06:01;8.93;;;8.13;;
18360;SDS011;9308;48.550;9.108;2023-03-12T04:08:27;9.33;;;8.43;;
18360;SDS011;9308;48.550;9.108;2023-03-12T04:10:53;9.00;;;8.20;;
18360;SDS011;9308;48.550;9.108;2023-03-12T04:13:20;8.77;;;8.03;;
18360;SDS011;9308;48.550;9.108;2023-03-12T04:15:46;8.43;;;7.60;;
18360;SDS011;9308;48.550;9.108;2023-03-12T04:18:13;9.13;;;8.20;;
18360;SDS011;9308;48.550;9.108;2023-03-12T04:20:39;8.77;;;7.90;;
18360;SDS011;9308;48.550;9.108;2023-03-12T04:23:04;8.63;;;7.80;;
18360;SDS011;9308;48.550;9.108;2023-03-12T04:25:29;8.00;;;7.27;;
18360;SDS011;9308;48.550;9.108;2023-03-12T04:27:55;7.97;;;7.23;;
18360;SDS011;9308;48.550;9.108;2023-03-12T04:30:21;7.37;;;6.80;;
18360;SDS011;9308;48.550;9.108;2023-03-12T04:32:46;7.77;;;7.00;;
18360;SDS011;9308;48.550;9.108;2023-03-12T04:35:12;7.90;;;7.20;;
18360;SDS011;9308;48.550;9.108;2023-03-12T04:37:37;7.07;;;6.47;;
18360;SDS011;9308;48.550;9.108;2023-03-12T04:40:03;7.23;;;6.63;;
18360;SDS011;9308;48.550;9.108;2023-03-12T04:42:32;7.33;;;6.67;;
18360;SDS011;9308;48.550;9.108;2023-03-12T04:44:59;8.23;;;7.33;;
18360;SDS011;9308;48.550;9.108;2023-03-12T04:47:25;7.37;;;6.67;;
18360;SDS011;9308;48.550;9.108;2023-03-12T04:49:50;7.53;;;6.93;;
18360;SDS011;9308;48.550;9.108;2023-03-12T04:52:16;7.50;;;6.80;;
18360;SDS011;9308;48.550;9.108;2023-03-12T04:54:42;7.40;;;6.70;;
18360;SDS011;9308;48.550;9.108;2023-03-12T04:57:08;7.80;;;7.10;;
18360;SDS011;9308;48.550;9.108;2023-03-12T04:59:34;7.23;;;6.60;;
18360;SDS011;9308;48.550;9.108;2023-03-12T05:02:00;7.30;;;6.70;;
18360;SDS011;9308;48.550;9.108;2023-03-12T05:04:25;8.03;;;6.60;;
18360;SDS011;9308;48.550;9.108;2023-03-12T05:06:50;7.00;;;6.40;;
18360;SDS011;9308;48.550;9.108;2023-03-12T05:09:16;7.43;;;6.77;;
18360;SDS011;9308;48.550;9.108;2023-03-12T05:11:41;8.20;;;6.60;;
18360;SDS011;9308;48.550;9.108;2023-03-12T05:14:08;7.77;;;6.90;;
18360;SDS011;9308;48.550;9.108;2023-03-12T05:16:35;7.27;;;6.73;;
18360;SDS011;9308;48.550;9.108;2023-03-12T05:19:02;7.60;;;6.53;;
18360;SDS011;9308;48.550;9.108;2023-03-12T05:21:28;9.27;;;8.47;;
18360;SDS011;9308;48.550;9.108;2023-03-12T05:23:54;7.73;;;7.10;;
18360;SDS011;9308;48.550;9.108;2023-03-12T05:29:03;8.43;;;7.63;;
18360;SDS011;9308;48.550;9.108;2023-03-12T05:31:30;9.50;;;7.77;;
18360;SDS011;9308;48.550;9.108;2023-03-12T05:33:59;7.60;;;6.80;;
18360;SDS011;9308;48.550;9.108;2023-03-12T05:36:25;7.97;;;7.20;;
18360;SDS011;9308;48.550;9.108;2023-03-12T05:38:51;8.43;;;7.57;;
18360;SDS011;9308;48.550;9.108;2023-03-12T05:41:19;7.20;;;6.60;;
18360;SDS011;9308;48.550;9.108;2023-03-12T05:43:47;8.40;;;7.70;;
18360;SDS011;9308;48.550;9.108;2023-03-12T05:46:12;7.80;;;7.10;;
18360;SDS011;9308;48.550;9.108;2023-03-12T05:48:38;7.03;;;6.37;;
18360;SDS011;9308;48.550;9.108;2023-03-12T05:51:04;10.23;;;7.30;;
18360;SDS011;9308;48.550;9.108;2023-03-12T05:53:29;7.60;;;6.90;;
18360;SDS011;9308;48.550;9.108;2023-03-12T05:56:00;7.47;;;6.77;;
18360;SDS011;9308;48.550;9.108;2023-03-12T05:58:27;7.40;;;6.70;;
18360;SDS011;9308;48.550;9.108;2023-03-12T06:00:52;7.47;;;6.77;;
18360;SDS011;9308;48.550;9.108;2023-03-12T06:03:18;7.77;;;7.07;;
18360;SDS011;9308;48.550;9.108;2023-03-12T06:05:43;7.23;;;6.60;;
18360;SDS011;9308;48.550;9.108;2023-03-12T06:08:09;8.33;;;7.63;;
18360;SDS011;9308;48.550;9.108;2023-03-12T06:10:36;8.60;;;7.90;;
18360;SDS011;9308;48.550;9.108;2023-03-12T06:13:02;9.23;;;8.43;;
18360;SDS011;9308;48.550;9.108;2023-03-12T06:15:29;8.10;;;7.50;;
18360;SDS011;9308;48.550;9.108;2023-03-12T06:17:54;12.00;;;10.97;;
18360;SDS011;9308;48.550;9.108;2023-03-12T06:20:20;10.70;;;8.87;;
18360;SDS011;9308;48.550;9.108;2023-03-12T06:22:45;8.83;;;8.00;;
18360;SDS011;9308;48.550;9.108;2023-03-12T06:25:11;7.97;;;7.17;;
18360;SDS011;9308;48.550;9.108;2023-03-12T06:27:36;8.10;;;6.90;;
18360;SDS011;9308;48.550;9.108;2023-03-12T06:30:02;7.30;;;6.60;;
18360;SDS011;9308;48.550;9.108;2023-03-12T06:32:28;7.23;;;6.53;;
18360;SDS011;9308;48.550;9.108;2023-03-12T06:34:53;7.20;;;6.50;;
18360;SDS011;9308;48.550;9.108;2023-03-12T06:37:19;7.50;;;6.80;;
18360;SDS011;9308;48.550;9.108;2023-03-12T06:39:44;7.97;;;7.23;;
18360;SDS011;9308;48.550;9.108;2023-03-12T06:42:10;9.43;;;8.17;;
18360;SDS011;9308;48.550;9.108;2023-03-12T06:44:38;9.40;;;8.40;;
18360;SDS011;9308;48.550;9.108;2023-03-12T06:47:04;13.47;;;12.37;;
18360;SDS011;9308;48.550;9.108;2023-03-12T06:49:30;10.33;;;9.40;;
18360;SDS011;9308;48.550;9.108;2023-03-12T06:51:57;12.37;;;11.17;;
18360;SDS011;9308;48.550;9.108;2023-03-12T06:54:23;8.87;;;8.00;;
18360;SDS011;9308;48.550;9.108;2023-03-12T06:56:48;8.67;;;7.97;;
18360;SDS011;9308;48.550;9.108;2023-03-12T06:59:14;9.10;;;8.30;;
18360;SDS011;9308;48.550;9.108;2023-03-12T07:01:39;9.50;;;8.67;;
18360;SDS011;9308;48.550;9.108;2023-03-12T07:04:05;9.67;;;8.33;;
18360;SDS011;9308;48.550;9.108;2023-03-12T07:06:30;8.90;;;8.07;;
18360;SDS011;9308;48.550;9.108;2023-03-12T07:08:56;9.13;;;8.43;;
18360;SDS011;9308;48.550;9.108;2023-03-12T07:11:21;8.87;;;8.07;;
18360;SDS011;9308;48.550;9.108;2023-03-12T07:13:47;9.20;;;8.30;;
18360;SDS011;9308;48.550;9.108;2023-03-12T07:16:12;12.80;;;11.60;;
18360;SDS011;9308;48.550;9.108;2023-03-12T07:18:38;8.33;;;7.63;;
18360;SDS011;9308;48.550;9.108;2023-03-12T07:21:03;8.27;;;7.50;;
18360;SDS011;9308;48.550;9.108;2023-03-12T07:23:29;8.17;;;7.23;;
18360;SDS011;9308;48.550;9.108;2023-03-12T07:25:54;8.23;;;7.53;;
18360;SDS011;9308;48.550;9.108;2023-03-12T07:28:20;7.93;;;7.23;;
18360;SDS011;9308;48.550;9.108;2023-03-12T07:30:46;8.27;;;7.60;;
18360;SDS011;9308;48.550;9.108;2023-03-12T07:33:15;8.80;;;7.70;;
18360;SDS011;9308;48.550;9.108;2023-03-12T07:35:43;8.77;;;8.07;;
18360;SDS011;9308;48.550;9.108;2023-03-12T07:38:10;8.77;;;8.07;;
18360;SDS011;9308;48.550;9.108;2023-03-12T07:40:36;7.30;;;6.70;;
18360;SDS011;9308;48.550;9.108;2023-03-12T07:43:02;7.90;;;7.30;;
18360;SDS011;9308;48.550;9.108;2023-03-12T07:45:28;10.17;;;9.37;;
18360;SDS011;9308;48.550;9.108;2023-03-12T07:47:53;7.77;;;7.07;;
18360;SDS011;9308;48.550;9.108;2023-03-12T07:50:19;7.53;;;6.80;;
18360;SDS011;9308;48.550;9.108;2023-03-12T07:52:45;7.53;;;6.83;;
18360;SDS011;9308;48.550;9.108;2023-03-12T07:55:11;6.77;;;6.27;;
18360;SDS011;9308;48.550;9.108;2023-03-12T07:57:37;12.63;;;11.37;;
18360;SDS011;9308;48.550;9.108;2023-03-12T08:00:03;10.83;;;8.60;;
18360;SDS011;9308;48.550;9.108;2023-03-12T08:02:31;10.10;;;9.20;;
18360;SDS011;9308;48.550;9.108;2023-03-12T08:04:58;9.23;;;8.33;;
18360;SDS011;9308;48.550;9.108;2023-03-12T08:07:23;9.07;;;8.27;;
18360;SDS011;9308;48.550;9.108;2023-03-12T08:09:49;9.27;;;8.43;;
18360;SDS011;9308;48.550;9.108;2023-03-12T08:12:14;9.93;;;9.13;;
18360;SDS011;9308;48.550;9.108;2023-03-12T08:14:40;18.33;;;16.43;;
18360;SDS011;9308;48.550;9.108;2023-03-12T08:17:06;22.40;;;19.17;;
18360;SDS011;9308;48.550;9.108;2023-03-12T08:19:31;28.30;;;18.80;;
18360;SDS011;9308;48.550;9.108;2023-03-12T08:21:57;14.57;;;13.10;;
18360;SDS011;9308;48.550;9.108;2023-03-12T08:24:23;14.53;;;13.03;;
18360;SDS011;9308;48.550;9.108;2023-03-12T08:26:48;11.90;;;10.80;;
18360;SDS011;9308;48.550;9.108;2023-03-12T08:29:14;10.43;;;9.53;;
18360;SDS011;9308;48.550;9.108;2023-03-12T08:31:40;10.67;;;9.73;;
18360;SDS011;9308;48.550;9.108;2023-03-12T08:34:06;9.63;;;8.73;;
18360;SDS011;9308;48.550;9.108;2023-03-12T08:36:31;11.37;;;10.30;;
18360;SDS011;9308;48.550;9.108;2023-03-12T08:38:57;8.60;;;7.90;;
18360;SDS011;9308;48.550;9.108;2023-03-12T08:41:22;8.80;;;8.00;;
18360;SDS011;9308;48.550;9.108;2023-03-12T08:43:48;6.90;;;6.40;;
18360;SDS011;9308;48.550;9.108;2023-03-12T08:46:13;9.13;;;8.20;;
18360;SDS011;9308;48.550;9.108;2023-03-12T08:48:39;11.10;;;10.10;;
18360;SDS011;9308;48.550;9.108;2023-03-12T08:51:05;8.97;;;8.10;;
18360;SDS011;9308;48.550;9.108;2023-03-12T08:53:32;9.47;;;8.50;;
18360;SDS011;9308;48.550;9.108;2023-03-12T08:55:59;7.30;;;6.50;;
18360;SDS011;9308;48.550;9.108;2023-03-12T08:58:26;8.40;;;7.60;;
18360;SDS011;9308;48.550;9.108;2023-03-12T09:00:52;7.70;;;7.00;;
18360;SDS011;9308;48.550;9.108;2023-03-12T09:03:18;7.57;;;6.90;;
18360;SDS011;9308;48.550;9.108;2023-03-12T09:05:46;8.10;;;7.40;;
18360;SDS011;9308;48.550;9.108;2023-03-12T09:08:13;7.70;;;7.10;;
18360;SDS011;9308;48.550;9.108;2023-03-12T09:10:39;8.47;;;7.17;;
18360;SDS011;9308;48.550;9.108;2023-03-12T09:13:05;7.93;;;7.13;;
18360;SDS011;9308;48.550;9.108;2023-03-12T09:15:31;7.10;;;6.50;;
18360;SDS011;9308;48.550;9.108;2023-03-12T09:17:57;7.57;;;6.87;;
18360;SDS011;9308;48.550;9.108;2023-03-12T09:20:23;7.40;;;6.70;;
18360;SDS011;9308;48.550;9.108;2023-03-12T09:22:49;7.23;;;6.63;;
18360;SDS011;9308;48.550;9.108;2023-03-12T09:25:14;8.77;;;7.97;;
18360;SDS011;9308;48.550;9.108;2023-03-12T09:27:44;9.40;;;8.40;;
18360;SDS011;9308;48.550;9.108;2023-03-12T09:30:13;8.67;;;7.97;;
18360;SDS011;9308;48.550;9.108;2023-03-12T09:32:40;9.10;;;8.23;;
18360;SDS011;9308;48.550;9.108;2023-03-12T09:35:06;8.83;;;8.10;;
18360;SDS011;9308;48.550;9.108;2023-03-12T09:37:32;9.67;;;8.73;;
18360;SDS011;9308;48.550;9.108;2023-03-12T09:39:58;9.70;;;8.90;;
18360;SDS011;9308;48.550;9.108;2023-03-12T09:42:24;9.43;;;8.53;;
18360;SDS011;9308;48.550;9.108;2023-03-12T09:44:59;9.60;;;7.90;;
18360;SDS011;9308;48.550;9.108;2023-03-12T09:47:30;9.70;;;8.50;;
18360;SDS011;9308;48.550;9.108;2023-03-12T09:52:33;8.70;;;7.80;;
18360;SDS011;9308;48.550;9.108;2023-03-12T09:55:12;8.77;;;7.87;;
18360;SDS011;9308;48.550;9.108;2023-03-12T09:57:40;8.67;;;7.87;;
18360;SDS011;9308;48.550;9.108;2023-03-12T10:00:11;7.50;;;6.73;;
18360;SDS011;9308;48.550;9.108;2023-03-12T10:05:35;7.13;;;6.43;;
18360;SDS011;9308;48.550;9.108;2023-03-12T10:10:52;6.47;;;5.87;;
18360;SDS011;9308;48.550;9.108;2023-03-12T10:18:41;8.33;;;6.07;;
18360;SDS011;9308;48.550;9.108;2023-03-12T10:21:32;7.30;;;6.67;;
18360;SDS011;9308;48.550;9.108;2023-03-12T10:24:17;6.77;;;6.07;;
18360;SDS011;9308;48.550;9.108;2023-03-12T10:26:58;5.80;;;5.30;;
18360;SDS011;9308;48.550;9.108;2023-03-12T10:29:29;5.83;;;5.27;;
18360;SDS011;9308;48.550;9.108;2023-03-12T10:34:31;5.37;;;4.97;;
18360;SDS011;9308;48.550;9.108;2023-03-12T10:37:44;5.70;;;5.23;;
18360;SDS011;9308;48.550;9.108;2023-03-12T10:39:53;6.20;;;5.60;;
18360;SDS011;9308;48.550;9.108;2023-03-12T10:42:21;5.03;;;4.50;;
18360;SDS011;9308;48.550;9.108;2023-03-12T10:44:52;5.77;;;5.30;;
18360;SDS011;9308;48.550;9.108;2023-03-12T10:47:23;5.43;;;4.43;;
18360;SDS011;9308;48.550;9.108;2023-03-12T10:50:20;3.87;;;3.50;;
18360;SDS011;9308;48.550;9.108;2023-03-12T10:52:48;5.63;;;3.53;;
18360;SDS011;9308;48.550;9.108;2023-03-12T10:57:51;1.80;;;1.70;;
18360;SDS011;9308;48.550;9.108;2023-03-12T11:00:19;2.17;;;2.07;;
18360;SDS011;9308;48.550;9.108;2023-03-12T11:02:45;4.50;;;1.87;;
18360;SDS011;9308;48.550;9.108;2023-03-12T11:05:20;4.70;;;2.27;;
18360;SDS011;9308;48.550;9.108;2023-03-12T11:07:48;4.20;;;2.50;;
18360;SDS011;9308;48.550;9.108;2023-03-12T11:12:58;5.77;;;5.33;;
18360;SDS011;9308;48.550;9.108;2023-03-12T11:15:27;4.87;;;2.80;;
18360;SDS011;9308;48.550;9.108;2023-03-12T11:20:46;5.00;;;3.90;;
18360;SDS011;9308;48.550;9.108;2023-03-12T11:26:17;3.47;;;2.50;;
18360;SDS011;9308;48.550;9.108;2023-03-12T11:28:48;3.83;;;3.47;;
18360;SDS011;9308;48.550;9.108;2023-03-12T11:31:30;5.40;;;3.50;;
18360;SDS011;9308;48.550;9.108;2023-03-12T11:34:06;4.43;;;3.57;;
18360;SDS011;9308;48.550;9.108;2023-03-12T11:36:40;7.93;;;5.00;;
18360;SDS011;9308;48.550;9.108;2023-03-12T11:45:01;4.40;;;4.07;;
18360;SDS011;9308;48.550;9.108;2023-03-12T11:47:47;3.23;;;2.57;;
18360;SDS011;9308;48.550;9.108;2023-03-12T11:50:27;4.27;;;2.33;;
18360;SDS011;9308;48.550;9.108;2023-03-12T11:53:28;4.10;;;1.80;;
18360;SDS011;9308;48.550;9.108;2023-03-12T12:04:09;3.63;;;2.43;;
18360;SDS011;9308;48.550;9.108;2023-03-12T12:12:26;2.80;;;2.53;;
18360;SDS011;9308;48.550;9.108;2023-03-12T12:20:27;4.50;;;2.47;;
18360;SDS011;9308;48.550;9.108;2023-03-12T12:23:15;5.90;;;2.80;;
18360;SDS011;9308;48.550;9.108;2023-03-12T12:31:31;2.67;;;2.20;;
18360;SDS011;9308;48.550;9.108;2023-03-12T12:34:12;4.40;;;2.10;;
18360;SDS011;9308;48.550;9.108;2023-03-12T12:36:49;3.60;;;2.07;;
18360;SDS011;9308;48.550;9.108;2023-03-12T12:39:33;5.80;;;2.10;;
18360;SDS011;9308;48.550;9.108;2023-03-12T12:42:05;4.13;;;3.60;;
18360;SDS011;9308;48.550;9.108;2023-03-12T12:44:42;5.20;;;2.10;;
18360;SDS011;9308;48.550;9.108;2023-03-12T12:47:13;3.10;;;2.80;;
18360;SDS011;9308;48.550;9.108;2023-03-12T12:49:46;3.93;;;2.30;;
18360;SDS011;9308;48.550;9.108;2023-03-12T12:52:16;4.60;;;2.17;;
18360;SDS011;9308;48.550;9.108;2023-03-12T12:54:54;5.60;;;3.10;;
18360;SDS011;9308;48.550;9.108;2023-03-12T13:03:12;5.70;;;4.00;;
18360;SDS011;9308;48.550;9.108;2023-03-12T13:05:45;5.80;;;4.20;;
18360;SDS011;9308;48.550;9.108;2023-03-12T13:16:33;7.63;;;4.17;;
18360;SDS011;9308;48.550;9.108;2023-03-12T13:21:57;7.43;;;3.70;;
18360;SDS011;9308;48.550;9.108;2023-03-12T13:24:32;8.43;;;5.80;;
18360;SDS011;9308;48.550;9.108;2023-03-12T13:27:23;4.47;;;3.40;;
18360;SDS011;9308;48.550;9.108;2023-03-12T13:29:52;6.77;;;4.60;;
18360;SDS011;9308;48.550;9.108;2023-03-12T13:35:06;5.70;;;3.30;;
18360;SDS011;9308;48.550;9.108;2023-03-12T13:45:32;4.40;;;2.13;;
18360;SDS011;9308;48.550;9.108;2023-03-12T13:48:04;4.33;;;2.33;;
18360;SDS011;9308;48.550;9.108;2023-03-12T13:53:19;3.50;;;2.07;;
18360;SDS011;9308;48.550;9.108;2023-03-12T13:55:58;3.23;;;2.10;;
18360;SDS011;9308;48.550;9.108;2023-03-12T13:58:27;3.53;;;2.10;;
18360;SDS011;9308;48.550;9.108;2023-03-12T14:01:03;2.13;;;1.90;;
18360;SDS011;9308;48.550;9.108;2023-03-12T14:03:31;3.37;;;2.70;;
18360;SDS011;9308;48.550;9.108;2023-03-12T14:06:05;3.20;;;2.00;;
18360;SDS011;9308;48.550;9.108;2023-03-12T14:17:12;4.67;;;1.83;;
18360;SDS011;9308;48.550;9.108;2023-03-12T14:19:41;2.90;;;1.63;;
18360;SDS011;9308;48.550;9.108;2023-03-12T14:22:11;4.23;;;2.10;;
18360;SDS011;9308;48.550;9.108;2023-03-12T14:24:56;4.47;;;1.70;;
18360;SDS011;9308;48.550;9.108;2023-03-12T14:27:28;3.93;;;2.37;;
18360;SDS011;9308;48.550;9.108;2023-03-12T14:32:45;2.13;;;1.43;;
18360;SDS011;9308;48.550;9.108;2023-03-12T14:35:13;4.17;;;3.33;;
18360;SDS011;9308;48.550;9.108;2023-03-12T14:37:45;4.30;;;3.33;;
18360;SDS011;9308;48.550;9.108;2023-03-12T14:40:24;4.60;;;2.10;;
18360;SDS011;9308;48.550;9.108;2023-03-12T14:42:59;5.27;;;4.00;;
18360;SDS011;9308;48.550;9.108;2023-03-12T14:45:25;3.00;;;2.00;;
18360;SDS011;9308;48.550;9.108;2023-03-12T14:48:00;3.13;;;2.17;;
18360;SDS011;9308;48.550;9.108;2023-03-12T14:50:34;5.83;;;1.80;;
18360;SDS011;9308;48.550;9.108;2023-03-12T14:55:57;3.30;;;1.70;;
18360;SDS011;9308;48.550;9.108;2023-03-12T14:58:26;2.47;;;2.27;;
18360;SDS011;9308;48.550;9.108;2023-03-12T15:00:56;2.23;;;1.90;;
18360;SDS011;9308;48.550;9.108;2023-03-12T15:03:27;3.60;;;1.80;;
18360;SDS011;9308;48.550;9.108;2023-03-12T15:05:55;2.13;;;1.50;;
18360;SDS011;9308;48.550;9.108;2023-03-12T15:08:20;3.53;;;2.87;;
18360;SDS011;9308;48.550;9.108;2023-03-12T15:10:54;4.07;;;2.20;;
18360;SDS011;9308;48.550;9.108;2023-03-12T15:13:22;2.00;;;1.80;;
18360;SDS011;9308;48.550;9.108;2023-03-12T15:15:50;2.70;;;1.90;;
18360;SDS011;9308;48.550;9.108;2023-03-12T15:18:23;3.80;;;3.20;;
18360;SDS011;9308;48.550;9.108;2023-03-12T15:20:51;2.53;;;2.30;;
18360;SDS011;9308;48.550;9.108;2023-03-12T15:23:18;5.70;;;3.20;;
18360;SDS011;9308;48.550;9.108;2023-03-12T15:25:45;3.37;;;2.30;;
18360;SDS011;9308;48.550;9.108;2023-03-12T15:30:40;4.53;;;3.50;;
18360;SDS011;9308;48.550;9.108;2023-03-12T15:35:55;2.73;;;1.90;;
18360;SDS011;9308;48.550;9.108;2023-03-12T15:38:27;3.93;;;2.70;;
18360;SDS011;9308;48.550;9.108;2023-03-12T15:40:55;3.13;;;2.40;;
18360;SDS011;9308;48.550;9.108;2023-03-12T15:43:24;4.97;;;3.10;;
18360;SDS011;9308;48.550;9.108;2023-03-12T15:46:00;8.33;;;4.97;;
18360;SDS011;9308;48.550;9.108;2023-03-12T15:49:12;8.20;;;5.67;;
18360;SDS011;9308;48.550;9.108;2023-03-12T15:54:26;4.33;;;2.10;;
18360;SDS011;9308;48.550;9.108;2023-03-12T15:56:44;4.50;;;2.90;;
18360;SDS011;9308;48.550;9.108;2023-03-12T16:01:46;5.30;;;2.70;;
18360;SDS011;9308;48.550;9.108;2023-03-12T16:04:13;3.03;;;2.50;;
18360;SDS011;9308;48.550;9.108;2023-03-12T16:06:39;4.70;;;2.50;;
18360;SDS011;9308;48.550;9.108;2023-03-12T16:09:08;4.63;;;3.00;;
18360;SDS011;9308;48.550;9.108;2023-03-12T16:11:38;6.17;;;2.40;;
18360;SDS011;9308;48.550;9.108;2023-03-12T16:17:09;5.83;;;2.40;;
18360;SDS011;9308;48.550;9.108;2023-03-12T16:19:41;4.30;;;2.30;;
18360;SDS011;9308;48.550;9.108;2023-03-12T16:22:06;5.33;;;3.10;;
18360;SDS011;9308;48.550;9.108;2023-03-12T16:24:32;6.17;;;3.43;;
18360;SDS011;9308;48.550;9.108;2023-03-12T16:26:57;6.33;;;3.73;;
18360;SDS011;9308;48.550;9.108;2023-03-12T16:29:31;7.07;;;3.33;;
18360;SDS011;9308;48.550;9.108;2023-03-12T16:31:58;5.83;;;3.60;;
18360;SDS011;9308;48.550;9.108;2023-03-12T16:34:24;4.90;;;2.90;;
18360;SDS011;9308;48.550;9.108;2023-03-12T16:36:49;6.63;;;3.70;;
18360;SDS011;9308;48.550;9.108;2023-03-12T16:39:15;4.07;;;3.63;;
18360;SDS011;9308;48.550;9.108;2023-03-12T16:41:41;3.60;;;3.00;;
18360;SDS011;9308;48.550;9.108;2023-03-12T16:44:07;4.10;;;3.10;;
18360;SDS011;9308;48.550;9.108;2023-03-12T16:46:37;6.60;;;2.70;;
18360;SDS011;9308;48.550;9.108;2023-03-12T16:49:02;5.90;;;3.10;;
18360;SDS011;9308;48.550;9.108;2023-03-12T16:51:28;8.93;;;2.70;;
18360;SDS011;9308;48.550;9.108;2023-03-12T16:53:54;3.43;;;2.80;;
18360;SDS011;9308;48.550;9.108;2023-03-12T16:56:21;3.93;;;2.70;;
18360;SDS011;9308;48.550;9.108;2023-03-12T16:58:48;4.23;;;2.60;;
18360;SDS011;9308;48.550;9.108;2023-03-12T17:01:15;4.50;;;2.50;;
18360;SDS011;9308;48.550;9.108;2023-03-12T17:03:44;5.00;;;2.23;;
18360;SDS011;9308;48.550;9.108;2023-03-12T17:06:17;4.73;;;2.60;;
18360;SDS011;9308;48.550;9.108;2023-03-12T17:08:44;3.23;;;2.10;;